aviador You're here:

KNCA Decoded Metar

JACKSONVILLE in NC, USA
Report Time2018-06-23 05:56:00
UTC Time2018-06-23 06:13:42
Flight Rules vfr VFR
Wind210° at 05 kt
W.Decomp.*RWY 23: 4.9 kt HW 1 kt LCW
RWY 19: 4.4 kt HW 2.3 kt RCW
W.Rank210° ranks 9
Current wind is below 210° avg. (6.0)
Visibility9999 m
Phenomena:N/A
Clouds:N/A
Expected CloudBase > 800 ft AGL from Temp-Dew spread
CeilingNone
Temp26°C (ISA +11)
Dew Point24°C (89% RH)
QNH1011 hPa
Density Alt1,762 ft
Elevation26 ft
Report Wrong Elevation
Raw Report
KNCA 230556Z AUTO 21005KT 10SM CLR 26/24 A2986 RMK AO2 SLP114
T02610244 10294 20261 53003=

Extra information for KNCA:More info

Metar Taf Metar & Taf Last 4 Metars F.Rules Stats Wind Profile Meteogram Temp Stats Airport Information Weather charts Add Link Nearby VenuesMetar ALERT Operation Metar Decoded Social comments

AIRNAV info for KNCA